sensor_id;sensor_type;location;lat;lon;timestamp;pressure;altitude;pressure_sealevel;temperature;humidity
64683;BME280;51107;47.652;19.016;2023-04-22T00:01:00;99704.44;;;10.33;71.18
64683;BME280;51107;47.652;19.016;2023-04-22T00:03:29;99703.19;;;10.37;70.64
64683;BME280;51107;47.652;19.016;2023-04-22T00:05:58;99703.31;;;10.53;69.32
64683;BME280;51107;47.652;19.016;2023-04-22T00:08:27;99710.84;;;10.57;68.66
64683;BME280;51107;47.652;19.016;2023-04-22T00:10:56;99712.84;;;10.63;71.32
64683;BME280;51107;47.652;19.016;2023-04-22T00:13:24;99711.66;;;10.57;72.83
64683;BME280;51107;47.652;19.016;2023-04-22T00:15:52;99697.63;;;10.50;73.01
64683;BME280;51107;47.652;19.016;2023-04-22T00:18:20;99710.56;;;10.42;73.68
64683;BME280;51107;47.652;19.016;2023-04-22T00:20:49;99711.22;;;10.44;73.54
64683;BME280;51107;47.652;19.016;2023-04-22T00:23:17;99710.56;;;10.42;73.44
64683;BME280;51107;47.652;19.016;2023-04-22T00:25:46;99710.19;;;10.36;73.47
64683;BME280;51107;47.652;19.016;2023-04-22T00:28:14;99714.75;;;10.34;73.02
64683;BME280;51107;47.652;19.016;2023-04-22T00:30:43;99721.69;;;10.34;73.66
64683;BME280;51107;47.652;19.016;2023-04-22T00:33:11;99728.84;;;10.32;73.58
64683;BME280;51107;47.652;19.016;2023-04-22T00:35:40;99712.19;;;10.25;71.29
64683;BME280;51107;47.652;19.016;2023-04-22T00:38:08;99725.28;;;10.15;71.96
64683;BME280;51107;47.652;19.016;2023-04-22T00:40:38;99725.88;;;10.09;71.88
64683;BME280;51107;47.652;19.016;2023-04-22T00:43:07;99724.38;;;10.06;71.84
64683;BME280;51107;47.652;19.016;2023-04-22T00:45:36;99729.91;;;10.03;73.51
64683;BME280;51107;47.652;19.016;2023-04-22T00:48:05;99715.97;;;9.94;73.34
64683;BME280;51107;47.652;19.016;2023-04-22T00:50:34;99720.22;;;9.95;73.05
64683;BME280;51107;47.652;19.016;2023-04-22T00:53:03;99720.28;;;9.85;74.69
64683;BME280;51107;47.652;19.016;2023-04-22T00:55:31;99727.94;;;9.41;75.93
64683;BME280;51107;47.652;19.016;2023-04-22T00:58:01;99716.53;;;9.52;75.84
64683;BME280;51107;47.652;19.016;2023-04-22T01:00:30;99721.31;;;9.19;77.25
64683;BME280;51107;47.652;19.016;2023-04-22T01:02:58;99725.75;;;9.37;76.64
64683;BME280;51107;47.652;19.016;2023-04-22T01:05:30;99717.19;;;9.26;76.50
64683;BME280;51107;47.652;19.016;2023-04-22T01:07:59;99722.19;;;9.00;77.93
64683;BME280;51107;47.652;19.016;2023-04-22T01:10:29;99714.62;;;9.16;76.82
64683;BME280;51107;47.652;19.016;2023-04-22T01:12:57;99725.56;;;9.20;76.47
64683;BME280;51107;47.652;19.016;2023-04-22T01:15:26;99714.91;;;9.13;76.17
64683;BME280;51107;47.652;19.016;2023-04-22T01:17:55;99729.41;;;9.16;76.38
64683;BME280;51107;47.652;19.016;2023-04-22T01:20:26;99728.78;;;9.32;75.69
64683;BME280;51107;47.652;19.016;2023-04-22T01:22:57;99722.53;;;9.25;76.03
64683;BME280;51107;47.652;19.016;2023-04-22T01:25:30;99724.44;;;9.23;76.94
64683;BME280;51107;47.652;19.016;2023-04-22T01:27:59;99732.97;;;9.15;78.56
64683;BME280;51107;47.652;19.016;2023-04-22T01:30:27;99734.66;;;9.34;77.99
64683;BME280;51107;47.652;19.016;2023-04-22T01:32:55;99726.66;;;9.17;77.97
64683;BME280;51107;47.652;19.016;2023-04-22T01:35:24;99723.38;;;9.15;78.65
64683;BME280;51107;47.652;19.016;2023-04-22T01:37:52;99719.56;;;9.10;79.23
64683;BME280;51107;47.652;19.016;2023-04-22T01:40:21;99721.50;;;9.08;79.76
64683;BME280;51107;47.652;19.016;2023-04-22T01:42:50;99730.66;;;9.02;80.63
64683;BME280;51107;47.652;19.016;2023-04-22T01:45:19;99732.75;;;8.98;80.77
64683;BME280;51107;47.652;19.016;2023-04-22T01:47:47;99731.78;;;8.99;81.36
64683;BME280;51107;47.652;19.016;2023-04-22T01:50:16;99728.34;;;8.99;81.26
64683;BME280;51107;47.652;19.016;2023-04-22T01:52:45;99730.66;;;9.02;80.65
64683;BME280;51107;47.652;19.016;2023-04-22T01:55:14;99731.06;;;9.07;80.57
64683;BME280;51107;47.652;19.016;2023-04-22T01:57:43;99733.81;;;9.06;80.14
64683;BME280;51107;47.652;19.016;2023-04-22T02:00:12;99726.69;;;9.08;80.51
64683;BME280;51107;47.652;19.016;2023-04-22T02:02:43;99726.69;;;9.08;79.84
64683;BME280;51107;47.652;19.016;2023-04-22T02:05:11;99730.91;;;9.09;79.77
64683;BME280;51107;47.652;19.016;2023-04-22T02:07:40;99724.31;;;9.14;78.52
64683;BME280;51107;47.652;19.016;2023-04-22T02:10:09;99719.97;;;9.15;77.54
64683;BME280;51107;47.652;19.016;2023-04-22T02:12:38;99716.97;;;9.10;77.47
64683;BME280;51107;47.652;19.016;2023-04-22T02:15:07;99729.31;;;9.08;75.48
64683;BME280;51107;47.652;19.016;2023-04-22T02:17:35;99721.22;;;9.11;76.02
64683;BME280;51107;47.652;19.016;2023-04-22T02:20:05;99725.97;;;9.15;75.92
64683;BME280;51107;47.652;19.016;2023-04-22T02:22:33;99724.44;;;9.23;76.48
64683;BME280;51107;47.652;19.016;2023-04-22T02:25:03;99726.22;;;9.22;77.06
64683;BME280;51107;47.652;19.016;2023-04-22T02:27:31;99718.34;;;9.04;78.04
64683;BME280;51107;47.652;19.016;2023-04-22T02:30:00;99729.56;;;9.05;78.80
64683;BME280;51107;47.652;19.016;2023-04-22T02:32:30;99727.94;;;8.94;78.32
64683;BME280;51107;47.652;19.016;2023-04-22T02:34:59;99730.53;;;8.94;78.14
64683;BME280;51107;47.652;19.016;2023-04-22T02:37:29;99722.75;;;8.94;78.70
64683;BME280;51107;47.652;19.016;2023-04-22T02:39:57;99729.72;;;8.93;78.88
64683;BME280;51107;47.652;19.016;2023-04-22T02:42:26;99725.94;;;8.88;79.81
64683;BME280;51107;47.652;19.016;2023-04-22T02:44:54;99720.03;;;8.86;79.53
64683;BME280;51107;47.652;19.016;2023-04-22T02:47:23;99714.97;;;8.84;79.04
64683;BME280;51107;47.652;19.016;2023-04-22T02:49:51;99716.47;;;8.87;79.36
64683;BME280;51107;47.652;19.016;2023-04-22T02:52:20;99707.34;;;8.82;79.99
64683;BME280;51107;47.652;19.016;2023-04-22T02:54:48;99712.28;;;8.76;80.92
64683;BME280;51107;47.652;19.016;2023-04-22T02:57:17;99710.38;;;8.78;80.48
64683;BME280;51107;47.652;19.016;2023-04-22T02:59:45;99721.03;;;8.65;80.49
64683;BME280;51107;47.652;19.016;2023-04-22T03:02:14;99719.66;;;8.61;80.20
64683;BME280;51107;47.652;19.016;2023-04-22T03:04:44;99723.25;;;8.60;79.68
64683;BME280;51107;47.652;19.016;2023-04-22T03:07:13;99726.94;;;8.57;79.74
64683;BME280;51107;47.652;19.016;2023-04-22T03:09:41;99719.44;;;8.54;79.49
64683;BME280;51107;47.652;19.016;2023-04-22T03:12:10;99710.25;;;8.60;79.36
64683;BME280;51107;47.652;19.016;2023-04-22T03:14:38;99722.28;;;8.51;79.83
64683;BME280;51107;47.652;19.016;2023-04-22T03:17:06;99714.75;;;8.38;80.45
64683;BME280;51107;47.652;19.016;2023-04-22T03:19:35;99719.81;;;8.40;81.30
64683;BME280;51107;47.652;19.016;2023-04-22T03:22:04;99721.59;;;8.39;80.81
64683;BME280;51107;47.652;19.016;2023-04-22T03:24:32;99715.19;;;8.33;80.37
64683;BME280;51107;47.652;19.016;2023-04-22T03:27:02;99718.31;;;8.37;79.45
64683;BME280;51107;47.652;19.016;2023-04-22T03:29:31;99723.22;;;8.30;77.95
64683;BME280;51107;47.652;19.016;2023-04-22T03:31:59;99719.16;;;8.28;78.17
64683;BME280;51107;47.652;19.016;2023-04-22T03:34:28;99717.78;;;8.33;78.41
64683;BME280;51107;47.652;19.016;2023-04-22T03:36:56;99717.63;;;8.35;77.34
64683;BME280;51107;47.652;19.016;2023-04-22T03:39:25;99726.37;;;8.34;76.79
64683;BME280;51107;47.652;19.016;2023-04-22T03:41:54;99734.16;;;8.24;77.67
64683;BME280;51107;47.652;19.016;2023-04-22T03:44:23;99731.00;;;8.30;78.97
64683;BME280;51107;47.652;19.016;2023-04-22T03:46:51;99724.06;;;8.31;78.64
64683;BME280;51107;47.652;19.016;2023-04-22T03:49:21;99730.62;;;8.25;78.52
64683;BME280;51107;47.652;19.016;2023-04-22T03:51:49;99733.75;;;8.29;78.90
64683;BME280;51107;47.652;19.016;2023-04-22T03:54:18;99733.34;;;8.24;79.25
64683;BME280;51107;47.652;19.016;2023-04-22T03:56:47;99736.19;;;8.21;78.16
64683;BME280;51107;47.652;19.016;2023-04-22T03:59:16;99739.34;;;8.14;78.99
64683;BME280;51107;47.652;19.016;2023-04-22T04:01:45;99733.34;;;8.24;78.36
64683;BME280;51107;47.652;19.016;2023-04-22T04:04:17;99729.66;;;8.26;78.62
64683;BME280;51107;47.652;19.016;2023-04-22T04:06:47;99741.13;;;8.24;78.39
64683;BME280;51107;47.652;19.016;2023-04-22T04:09:15;99741.66;;;8.18;79.90
64683;BME280;51107;47.652;19.016;2023-04-22T04:11:45;99743.75;;;8.24;79.44
64683;BME280;51107;47.652;19.016;2023-04-22T04:14:14;99747.00;;;8.26;79.27
64683;BME280;51107;47.652;19.016;2023-04-22T04:16:43;99753.41;;;8.31;78.61
64683;BME280;51107;47.652;19.016;2023-04-22T04:19:12;99755.22;;;8.31;77.27
64683;BME280;51107;47.652;19.016;2023-04-22T04:21:40;99754.66;;;8.37;78.88
64683;BME280;51107;47.652;19.016;2023-04-22T04:24:09;99748.78;;;8.15;79.26
64683;BME280;51107;47.652;19.016;2023-04-22T04:26:38;99750.00;;;8.21;79.39
64683;BME280;51107;47.652;19.016;2023-04-22T04:29:06;99750.41;;;8.07;80.51
64683;BME280;51107;47.652;19.016;2023-04-22T04:31:37;99760.94;;;8.25;79.28
64683;BME280;51107;47.652;19.016;2023-04-22T04:34:06;99763.38;;;8.26;80.72
64683;BME280;51107;47.652;19.016;2023-04-22T04:36:35;99761.06;;;8.23;80.73
64683;BME280;51107;47.652;19.016;2023-04-22T04:39:07;99765.88;;;8.28;82.10
64683;BME280;51107;47.652;19.016;2023-04-22T04:41:37;99771.06;;;8.28;81.19
64683;BME280;51107;47.652;19.016;2023-04-22T04:44:06;99771.44;;;8.43;80.23
64683;BME280;51107;47.652;19.016;2023-04-22T04:46:35;99777.63;;;8.32;80.47
64683;BME280;51107;47.652;19.016;2023-04-22T04:49:05;99780.44;;;8.19;83.14
64683;BME280;51107;47.652;19.016;2023-04-22T04:51:37;99775.69;;;8.14;81.38
64683;BME280;51107;47.652;19.016;2023-04-22T04:54:06;99770.19;;;7.98;83.14
64683;BME280;51107;47.652;19.016;2023-04-22T04:56:34;99765.69;;;8.10;81.88
64683;BME280;51107;47.652;19.016;2023-04-22T04:59:03;99767.63;;;8.18;81.33
64683;BME280;51107;47.652;19.016;2023-04-22T05:01:32;99772.94;;;8.36;80.41
64683;BME280;51107;47.652;19.016;2023-04-22T05:04:01;99771.31;;;8.34;80.07
64683;BME280;51107;47.652;19.016;2023-04-22T05:06:30;99783.50;;;8.54;80.31
64683;BME280;51107;47.652;19.016;2023-04-22T05:09:00;99770.50;;;8.73;82.38
64683;BME280;51107;47.652;19.016;2023-04-22T05:11:28;99781.72;;;8.83;80.75
64683;BME280;51107;47.652;19.016;2023-04-22T05:13:57;99785.09;;;8.94;80.46
64683;BME280;51107;47.652;19.016;2023-04-22T05:16:26;99783.75;;;8.90;80.86
64683;BME280;51107;47.652;19.016;2023-04-22T05:18:54;99791.00;;;8.96;80.33
64683;BME280;51107;47.652;19.016;2023-04-22T05:21:23;99789.47;;;9.03;80.63
64683;BME280;51107;47.652;19.016;2023-04-22T05:23:52;99778.78;;;9.16;81.38
64683;BME280;51107;47.652;19.016;2023-04-22T05:26:20;99790.25;;;9.23;79.87
64683;BME280;51107;47.652;19.016;2023-04-22T05:28:49;99784.50;;;9.20;79.88
64683;BME280;51107;47.652;19.016;2023-04-22T05:31:18;99782.97;;;9.27;78.87
64683;BME280;51107;47.652;19.016;2023-04-22T05:33:47;99778.56;;;9.37;79.11
64683;BME280;51107;47.652;19.016;2023-04-22T05:36:15;99788.69;;;9.40;79.30
64683;BME280;51107;47.652;19.016;2023-04-22T05:38:45;99780.19;;;9.48;79.74
64683;BME280;51107;47.652;19.016;2023-04-22T05:41:13;99790.00;;;9.54;80.06
64683;BME280;51107;47.652;19.016;2023-04-22T05:43:41;99783.16;;;9.53;78.17
64683;BME280;51107;47.652;19.016;2023-04-22T05:46:11;99789.47;;;9.50;78.39
64683;BME280;51107;47.652;19.016;2023-04-22T05:48:40;99786.44;;;9.55;78.27
64683;BME280;51107;47.652;19.016;2023-04-22T05:51:08;99786.69;;;9.62;78.19
64683;BME280;51107;47.652;19.016;2023-04-22T05:53:37;99794.38;;;9.81;78.56
64683;BME280;51107;47.652;19.016;2023-04-22T05:56:05;99794.34;;;9.91;77.62
64683;BME280;51107;47.652;19.016;2023-04-22T05:58:34;99796.13;;;9.91;75.90
64683;BME280;51107;47.652;19.016;2023-04-22T06:01:05;99790.63;;;9.94;75.25
64683;BME280;51107;47.652;19.016;2023-04-22T06:03:36;99796.00;;;10.10;74.98
64683;BME280;51107;47.652;19.016;2023-04-22T06:06:05;99794.03;;;10.22;73.66
64683;BME280;51107;47.652;19.016;2023-04-22T06:08:33;99794.41;;;10.45;75.72
64683;BME280;51107;47.652;19.016;2023-04-22T06:11:02;99802.22;;;10.63;73.15
64683;BME280;51107;47.652;19.016;2023-04-22T06:13:31;99791.78;;;10.81;71.64
64683;BME280;51107;47.652;19.016;2023-04-22T06:15:59;99798.91;;;10.97;69.37
64683;BME280;51107;47.652;19.016;2023-04-22T06:18:28;99796.91;;;11.17;67.54
64683;BME280;51107;47.652;19.016;2023-04-22T06:20:57;99796.66;;;11.29;65.06
64683;BME280;51107;47.652;19.016;2023-04-22T06:23:26;99807.19;;;11.45;64.57
64683;BME280;51107;47.652;19.016;2023-04-22T06:25:55;99804.13;;;11.58;65.10
64683;BME280;51107;47.652;19.016;2023-04-22T06:28:25;99801.28;;;11.78;66.08
64683;BME280;51107;47.652;19.016;2023-04-22T06:30:53;99812.31;;;11.98;65.42
64683;BME280;51107;47.652;19.016;2023-04-22T06:33:22;99799.62;;;12.11;63.21
64683;BME280;51107;47.652;19.016;2023-04-22T06:35:51;99792.59;;;12.12;66.12
64683;BME280;51107;47.652;19.016;2023-04-22T06:38:19;99797.38;;;12.33;65.50
64683;BME280;51107;47.652;19.016;2023-04-22T06:40:52;99796.72;;;12.47;66.24
64683;BME280;51107;47.652;19.016;2023-04-22T06:43:21;99801.47;;;12.60;66.44
64683;BME280;51107;47.652;19.016;2023-04-22T06:45:51;99799.34;;;12.80;66.74
64683;BME280;51107;47.652;19.016;2023-04-22T06:48:20;99805.88;;;12.84;65.59
64683;BME280;51107;47.652;19.016;2023-04-22T06:50:53;99806.38;;;12.96;65.47
64683;BME280;51107;47.652;19.016;2023-04-22T06:53:23;99810.75;;;13.12;64.24
64683;BME280;51107;47.652;19.016;2023-04-22T06:55:52;99798.94;;;13.33;65.88
64683;BME280;51107;47.652;19.016;2023-04-22T06:58:21;99813.00;;;13.40;64.94
64683;BME280;51107;47.652;19.016;2023-04-22T07:00:50;99810.37;;;13.48;64.66
64683;BME280;51107;47.652;19.016;2023-04-22T07:03:18;99799.84;;;13.65;59.35
64683;BME280;51107;47.652;19.016;2023-04-22T07:05:53;99805.94;;;13.88;59.33
64683;BME280;51107;47.652;19.016;2023-04-22T07:08:22;99805.72;;;14.30;59.68
64683;BME280;51107;47.652;19.016;2023-04-22T07:10:50;99816.59;;;14.18;55.42
64683;BME280;51107;47.652;19.016;2023-04-22T07:13:20;99811.91;;;14.37;52.97
64683;BME280;51107;47.652;19.016;2023-04-22T07:15:49;99812.31;;;14.49;56.28
64683;BME280;51107;47.652;19.016;2023-04-22T07:18:17;99821.84;;;14.73;52.26
64683;BME280;51107;47.652;19.016;2023-04-22T07:20:45;99809.16;;;15.15;48.93
64683;BME280;51107;47.652;19.016;2023-04-22T07:23:14;99812.69;;;15.07;49.57
64683;BME280;51107;47.652;19.016;2023-04-22T07:25:42;99815.25;;;15.15;52.02
64683;BME280;51107;47.652;19.016;2023-04-22T07:28:10;99817.50;;;15.48;52.54
64683;BME280;51107;47.652;19.016;2023-04-22T07:30:39;99816.31;;;15.66;52.51
64683;BME280;51107;47.652;19.016;2023-04-22T07:33:07;99816.19;;;16.04;51.64
64683;BME280;51107;47.652;19.016;2023-04-22T07:35:35;99802.41;;;16.38;51.39
64683;BME280;51107;47.652;19.016;2023-04-22T07:38:04;99803.81;;;16.62;46.64
64683;BME280;51107;47.652;19.016;2023-04-22T07:40:34;99814.84;;;16.94;49.16
64683;BME280;51107;47.652;19.016;2023-04-22T07:43:03;99819.47;;;17.21;47.74
64683;BME280;51107;47.652;19.016;2023-04-22T07:45:32;99823.41;;;17.73;45.52
64683;BME280;51107;47.652;19.016;2023-04-22T07:48:03;99811.16;;;18.01;41.92
64683;BME280;51107;47.652;19.016;2023-04-22T07:50:31;99813.66;;;18.36;42.21
64683;BME280;51107;47.652;19.016;2023-04-22T07:53:00;99810.25;;;18.68;42.30
64683;BME280;51107;47.652;19.016;2023-04-22T07:55:28;99812.69;;;18.50;39.65
64683;BME280;51107;47.652;19.016;2023-04-22T07:57:56;99815.75;;;18.87;38.59
64683;BME280;51107;47.652;19.016;2023-04-22T08:00:27;99816.69;;;19.40;37.53
64683;BME280;51107;47.652;19.016;2023-04-22T08:02:57;99819.34;;;19.40;33.05
64683;BME280;51107;47.652;19.016;2023-04-22T08:05:26;99818.50;;;19.46;37.06
64683;BME280;51107;47.652;19.016;2023-04-22T08:07:55;99815.75;;;19.00;33.09
64683;BME280;51107;47.652;19.016;2023-04-22T08:10:24;99812.28;;;19.85;33.52
64683;BME280;51107;47.652;19.016;2023-04-22T08:12:52;99812.53;;;19.71;32.06
64683;BME280;51107;47.652;19.016;2023-04-22T08:15:20;99802.50;;;19.93;34.43
64683;BME280;51107;47.652;19.016;2023-04-22T08:17:49;99816.63;;;20.76;35.17
64683;BME280;51107;47.652;19.016;2023-04-22T08:20:17;99809.00;;;20.86;32.76
64683;BME280;51107;47.652;19.016;2023-04-22T08:22:47;99804.22;;;21.38;37.64
64683;BME280;51107;47.652;19.016;2023-04-22T08:25:17;99811.44;;;21.31;32.26
64683;BME280;51107;47.652;19.016;2023-04-22T08:27:45;99810.09;;;20.46;29.49
64683;BME280;51107;47.652;19.016;2023-04-22T08:30:14;99811.94;;;21.21;33.35
64683;BME280;51107;47.652;19.016;2023-04-22T08:32:43;99811.47;;;21.43;29.67
64683;BME280;51107;47.652;19.016;2023-04-22T08:35:11;99811.41;;;21.87;32.60
64683;BME280;51107;47.652;19.016;2023-04-22T08:37:40;99798.62;;;22.26;31.28
64683;BME280;51107;47.652;19.016;2023-04-22T08:40:09;99809.81;;;22.16;28.44
64683;BME280;51107;47.652;19.016;2023-04-22T08:42:39;99810.47;;;21.81;29.23
64683;BME280;51107;47.652;19.016;2023-04-22T08:45:07;99816.38;;;22.26;28.59
64683;BME280;51107;47.652;19.016;2023-04-22T08:47:38;99809.00;;;22.70;29.92
64683;BME280;51107;47.652;19.016;2023-04-22T08:50:08;99810.72;;;22.64;30.78
64683;BME280;51107;47.652;19.016;2023-04-22T08:52:37;99814.19;;;22.77;30.09
64683;BME280;51107;47.652;19.016;2023-04-22T08:55:05;99808.19;;;22.93;29.57
64683;BME280;51107;47.652;19.016;2023-04-22T08:57:35;99804.97;;;22.91;29.61
64683;BME280;51107;47.652;19.016;2023-04-22T09:00:07;99806.47;;;23.11;30.31
64683;BME280;51107;47.652;19.016;2023-04-22T09:02:40;99808.78;;;23.31;32.73
64683;BME280;51107;47.652;19.016;2023-04-22T09:05:12;99800.34;;;23.22;30.08
64683;BME280;51107;47.652;19.016;2023-04-22T09:07:41;99801.50;;;23.26;30.55
64683;BME280;51107;47.652;19.016;2023-04-22T09:10:10;99798.88;;;23.14;29.43
64683;BME280;51107;47.652;19.016;2023-04-22T09:12:40;99802.81;;;23.52;28.71
64683;BME280;51107;47.652;19.016;2023-04-22T09:15:09;99801.03;;;22.70;29.50
64683;BME280;51107;47.652;19.016;2023-04-22T09:17:37;99801.41;;;22.85;29.02
64683;BME280;51107;47.652;19.016;2023-04-22T09:20:07;99804.16;;;23.26;29.33
64683;BME280;51107;47.652;19.016;2023-04-22T09:22:43;99805.53;;;23.29;30.76
64683;BME280;51107;47.652;19.016;2023-04-22T09:25:22;99801.16;;;23.75;28.98
64683;BME280;51107;47.652;19.016;2023-04-22T09:27:53;99798.28;;;23.12;28.73
64683;BME280;51107;47.652;19.016;2023-04-22T09:30:25;99801.13;;;23.46;28.87
64683;BME280;51107;47.652;19.016;2023-04-22T09:33:01;99802.16;;;23.86;28.75
64683;BME280;51107;47.652;19.016;2023-04-22T09:35:30;99796.31;;;24.01;27.62
64683;BME280;51107;47.652;19.016;2023-04-22T09:38:01;99789.94;;;23.08;27.55
64683;BME280;51107;47.652;19.016;2023-04-22T09:40:30;99796.84;;;23.45;26.80
64683;BME280;51107;47.652;19.016;2023-04-22T09:43:01;99794.78;;;23.76;26.93
64683;BME280;51107;47.652;19.016;2023-04-22T09:45:34;99790.97;;;23.43;26.19
64683;BME280;51107;47.652;19.016;2023-04-22T09:48:11;99789.41;;;23.59;28.61
64683;BME280;51107;47.652;19.016;2023-04-22T09:50:43;99783.47;;;23.28;25.36
64683;BME280;51107;47.652;19.016;2023-04-22T09:53:14;99776.31;;;23.05;26.72
64683;BME280;51107;47.652;19.016;2023-04-22T09:55:48;99774.00;;;22.61;27.10
64683;BME280;51107;47.652;19.016;2023-04-22T09:58:19;99776.66;;;23.08;29.81
64683;BME280;51107;47.652;19.016;2023-04-22T10:00:52;99774.84;;;22.31;27.35
64683;BME280;51107;47.652;19.016;2023-04-22T10:03:21;99762.94;;;22.64;31.76
64683;BME280;51107;47.652;19.016;2023-04-22T10:05:50;99757.03;;;22.74;28.29
64683;BME280;51107;47.652;19.016;2023-04-22T10:08:18;99761.78;;;23.60;28.99
64683;BME280;51107;47.652;19.016;2023-04-22T10:10:47;99751.03;;;23.55;28.72
64683;BME280;51107;47.652;19.016;2023-04-22T10:13:15;99751.88;;;23.44;27.34
64683;BME280;51107;47.652;19.016;2023-04-22T10:15:48;99750.28;;;23.43;30.12
64683;BME280;51107;47.652;19.016;2023-04-22T10:18:21;99747.13;;;23.46;32.77
64683;BME280;51107;47.652;19.016;2023-04-22T10:20:52;99754.28;;;23.57;31.11
64683;BME280;51107;47.652;19.016;2023-04-22T10:23:23;99751.13;;;23.07;28.25
64683;BME280;51107;47.652;19.016;2023-04-22T10:25:55;99744.06;;;22.30;27.85
64683;BME280;51107;47.652;19.016;2023-04-22T10:28:27;99737.44;;;21.97;28.10
64683;BME280;51107;47.652;19.016;2023-04-22T10:30:57;99741.25;;;22.67;29.59
64683;BME280;51107;47.652;19.016;2023-04-22T10:41:24;99728.75;;;22.92;27.63
64683;BME280;51107;47.652;19.016;2023-04-22T10:43:58;99729.78;;;23.14;31.29
64683;BME280;51107;47.652;19.016;2023-04-22T10:49:12;99729.38;;;23.63;28.36
64683;BME280;51107;47.652;19.016;2023-04-22T10:51:48;99723.91;;;23.00;28.50
64683;BME280;51107;47.652;19.016;2023-04-22T10:59:34;99725.03;;;21.79;29.08
64683;BME280;51107;47.652;19.016;2023-04-22T11:02:06;99724.59;;;21.15;30.09
64683;BME280;51107;47.652;19.016;2023-04-22T11:04:35;99732.22;;;20.86;30.66
64683;BME280;51107;47.652;19.016;2023-04-22T11:09:59;99730.00;;;20.58;32.02
64683;BME280;51107;47.652;19.016;2023-04-22T11:15:11;99723.16;;;20.25;33.60
64683;BME280;51107;47.652;19.016;2023-04-22T11:17:44;99722.44;;;20.11;34.65
64683;BME280;51107;47.652;19.016;2023-04-22T11:20:14;99726.97;;;20.03;33.28
64683;BME280;51107;47.652;19.016;2023-04-22T11:22:55;99727.03;;;19.51;31.48
64683;BME280;51107;47.652;19.016;2023-04-22T11:25:25;99734.97;;;19.45;34.93
64683;BME280;51107;47.652;19.016;2023-04-22T11:27:55;99727.03;;;19.51;33.56
64683;BME280;51107;47.652;19.016;2023-04-22T11:30:25;99729.66;;;19.51;34.31
64683;BME280;51107;47.652;19.016;2023-04-22T11:32:55;99725.50;;;19.30;34.17
64683;BME280;51107;47.652;19.016;2023-04-22T11:35:29;99724.28;;;19.26;34.14
64683;BME280;51107;47.652;19.016;2023-04-22T11:38:03;99722.66;;;19.25;34.28
64683;BME280;51107;47.652;19.016;2023-04-22T11:40:37;99723.06;;;19.29;33.73
64683;BME280;51107;47.652;19.016;2023-04-22T11:43:09;99717.19;;;19.20;33.58
64683;BME280;51107;47.652;19.016;2023-04-22T11:45:38;99719.84;;;19.20;34.63
64683;BME280;51107;47.652;19.016;2023-04-22T11:48:08;99715.59;;;19.12;34.74
64683;BME280;51107;47.652;19.016;2023-04-22T11:50:39;99719.47;;;19.16;36.40
64683;BME280;51107;47.652;19.016;2023-04-22T11:53:16;99727.94;;;19.25;36.94
64683;BME280;51107;47.652;19.016;2023-04-22T11:55:48;99723.88;;;19.29;35.17
64683;BME280;51107;47.652;19.016;2023-04-22T11:58:22;99734.06;;;19.19;36.33
64683;BME280;51107;47.652;19.016;2023-04-22T12:00:52;99719.50;;;19.55;32.43
64683;BME280;51107;47.652;19.016;2023-04-22T12:03:23;99722.00;;;19.37;35.65
64683;BME280;51107;47.652;19.016;2023-04-22T12:05:55;99719.97;;;19.39;37.71
64683;BME280;51107;47.652;19.016;2023-04-22T12:08:37;99718.47;;;19.63;40.41
64683;BME280;51107;47.652;19.016;2023-04-22T12:11:15;99719.59;;;19.74;35.26
64683;BME280;51107;47.652;19.016;2023-04-22T12:13:44;99715.28;;;19.86;36.32
64683;BME280;51107;47.652;19.016;2023-04-22T12:16:16;99705.59;;;20.05;33.00
64683;BME280;51107;47.652;19.016;2023-04-22T12:18:53;99711.81;;;20.17;33.46
64683;BME280;51107;47.652;19.016;2023-04-22T12:21:23;99708.00;;;20.13;31.43
64683;BME280;51107;47.652;19.016;2023-04-22T12:23:56;99709.34;;;19.97;32.50
64683;BME280;51107;47.652;19.016;2023-04-22T12:26:26;99708.19;;;19.87;32.13
64683;BME280;51107;47.652;19.016;2023-04-22T12:28:59;99699.28;;;19.81;32.55
64683;BME280;51107;47.652;19.016;2023-04-22T12:31:27;99689.63;;;19.93;34.24
64683;BME280;51107;47.652;19.016;2023-04-22T12:33:56;99694.13;;;20.18;33.50
64683;BME280;51107;47.652;19.016;2023-04-22T12:36:24;99691.31;;;20.13;31.32
64683;BME280;51107;47.652;19.016;2023-04-22T12:38:53;99693.00;;;20.07;32.71
64683;BME280;51107;47.652;19.016;2023-04-22T12:41:21;99688.78;;;20.25;31.81
64683;BME280;51107;47.652;19.016;2023-04-22T12:43:50;99693.66;;;20.28;30.89
64683;BME280;51107;47.652;19.016;2023-04-22T12:46:19;99695.72;;;19.94;30.61
64683;BME280;51107;47.652;19.016;2023-04-22T12:48:48;99684.84;;;20.09;33.42
64683;BME280;51107;47.652;19.016;2023-04-22T12:51:17;99687.19;;;20.24;32.60
64683;BME280;51107;47.652;19.016;2023-04-22T12:53:45;99684.84;;;20.34;30.85
64683;BME280;51107;47.652;19.016;2023-04-22T12:56:14;99686.41;;;20.16;31.64
64683;BME280;51107;47.652;19.016;2023-04-22T12:58:42;99681.06;;;20.23;34.25
64683;BME280;51107;47.652;19.016;2023-04-22T13:01:10;99686.47;;;20.10;31.96
64683;BME280;51107;47.652;19.016;2023-04-22T13:03:40;99680.75;;;20.13;30.97
64683;BME280;51107;47.652;19.016;2023-04-22T13:06:08;99682.41;;;20.07;31.46
64683;BME280;51107;47.652;19.016;2023-04-22T13:08:37;99673.50;;;20.01;31.08
64683;BME280;51107;47.652;19.016;2023-04-22T13:11:06;99678.41;;;19.98;32.86
64683;BME280;51107;47.652;19.016;2023-04-22T13:13:34;99672.91;;;19.99;31.79
64683;BME280;51107;47.652;19.016;2023-04-22T13:16:03;99669.47;;;19.99;31.44
64683;BME280;51107;47.652;19.016;2023-04-22T13:18:32;99672.94;;;19.93;31.99
64683;BME280;51107;47.652;19.016;2023-04-22T13:21:00;99670.19;;;19.81;32.26
64683;BME280;51107;47.652;19.016;2023-04-22T13:23:28;99678.03;;;19.94;32.68
64683;BME280;51107;47.652;19.016;2023-04-22T13:25:58;99672.25;;;20.04;33.66
64683;BME280;51107;47.652;19.016;2023-04-22T13:28:27;99667.03;;;19.97;31.18